Red Oak, North Carolina
Current Conditions -  °F | °C
As of 2:53 PM on Saturday 20 Dec 2014 (Local Time) from KRWI Reporting Station
Overcast Overcast  
Wind Chill: 39°   Ceiling: 5500
Heat Index: 39°   Visibility: 9mi
Dew Point: 34°   Wind: 0mph
Humidity: 82%   Direction: NA
Pressure: 30.26"   Gusts: NA
Location:  36.04°N, 77.91°W
Report Text: KRWI 201953Z AUTO 00000KT 9SM FEW009 OVC055 04/01 A3026 RMK AO2 SLP247 T00390011
Loading
Personal Weather Stations






























Interactive Weather Map New forecast layout! Learn more

10-Day Weather Forecast

Advertisements
Track Severe Weather on mobile